Terminal Aerodrome Forecast
Issued by NWS

Home | Current Version | Previous Version | Text Only | Print | Product List | Glossary Off
Versions: 1 2 3 4 5 6 7 8 9 10 11 12 13 14

000
FTUS43 KDLH 240500
TAFHIB
TAF
KHIB 240528Z 2406/2506 VRB03KT P6SM BKN250
     FM241500 12005KT P6SM SCT070 BKN120
     FM250200 12005KT P6SM VCSH OVC050=

USA.gov is the U.S. government's official web portal to all federal, state and local government web resources and services.